Time,TemperatureF,DewpointF,PressureIn,WindDirection,WindDirectionDegrees,WindSpeedMPH,WindSpeedGustMPH,Humidity,HourlyPrecipIn,Conditions,Clouds,dailyrainin,SoftwareType,DateUTC
2013-09-14 00:07:00,56.5,52.4,29.72,West,278,0.0,0.0,86,0.00,,,0.00,Wunderground v.1.15,2013-09-14 07:07:00,
2013-09-14 00:15:00,56.2,52.1,29.72,West,278,0.0,0.0,86,0.00,,,0.00,Wunderground v.1.15,2013-09-14 07:15:00,
2013-09-14 00:16:00,53.6,50.4,29.72,West,278,0.0,0.0,89,0.00,,,0.00,Wunderground v.1.15,2013-09-14 07:16:00,
2013-09-14 00:22:00,53.5,50.3,29.72,West,278,0.0,0.0,89,0.00,,,0.00,Wunderground v.1.15,2013-09-14 07:22:00,
2013-09-14 00:25:00,55.9,52.1,29.72,West,278,0.0,0.0,87,0.00,,,0.00,Wunderground v.1.15,2013-09-14 07:25:00,
2013-09-14 00:30:00,55.6,51.8,29.72,West,278,0.0,0.0,87,0.00,,,0.00,Wunderground v.1.15,2013-09-14 07:30:00,
2013-09-14 00:32:00,53.3,50.1,29.72,West,278,0.0,0.0,89,0.00,,,0.00,Wunderground v.1.15,2013-09-14 07:32:00,
2013-09-14 00:36:00,55.1,51.6,29.73,West,278,0.0,0.0,88,0.00,,,0.00,Wunderground v.1.15,2013-09-14 07:36:00,
2013-09-14 00:43:00,54.8,51.3,29.73,West,278,0.0,0.0,88,0.00,,,0.00,Wunderground v.1.15,2013-09-14 07:43:00,
2013-09-14 00:48:00,53.1,50.2,29.72,West,278,0.0,0.0,90,0.00,,,0.00,Wunderground v.1.15,2013-09-14 07:48:00,
2013-09-14 00:49:00,54.7,51.2,29.73,West,278,0.0,0.0,88,0.00,,,0.00,Wunderground v.1.15,2013-09-14 07:49:00,
2013-09-14 00:54:00,54.4,51.2,29.72,West,278,0.0,0.0,89,0.00,,,0.00,Wunderground v.1.15,2013-09-14 07:54:00,
2013-09-14 01:00:00,54.1,50.9,29.72,West,278,0.0,0.0,89,0.00,,,0.00,Wunderground v.1.15,2013-09-14 08:00:00,
2013-09-14 01:02:00,52.6,49.8,29.72,West,278,0.0,0.0,90,0.00,,,0.00,Wunderground v.1.15,2013-09-14 08:02:00,
2013-09-14 01:06:00,52.5,49.7,29.73,West,278,0.0,0.0,90,0.00,,,0.00,Wunderground v.1.15,2013-09-14 08:06:00,
2013-09-14 01:07:00,53.9,50.7,29.72,West,278,0.0,0.0,89,0.00,,,0.00,Wunderground v.1.15,2013-09-14 08:07:00,
2013-09-14 01:13:00,53.6,50.4,29.72,West,278,0.0,0.0,89,0.00,,,0.00,Wunderground v.1.15,2013-09-14 08:13:00,
2013-09-14 01:18:00,52.2,49.4,29.73,West,278,0.0,0.0,90,0.00,,,0.00,Wunderground v.1.15,2013-09-14 08:18:00,
2013-09-14 01:19:00,53.5,50.3,29.72,West,278,0.0,0.0,89,0.00,,,0.00,Wunderground v.1.15,2013-09-14 08:19:00,
2013-09-14 01:25:00,53.5,50.6,29.72,West,278,0.0,0.0,90,0.00,,,0.00,Wunderground v.1.15,2013-09-14 08:25:00,
2013-09-14 01:32:00,51.6,49.1,29.72,West,278,0.0,0.0,91,0.00,,,0.00,Wunderground v.1.15,2013-09-14 08:32:00,
2013-09-14 01:33:00,53.3,50.1,29.72,West,278,0.0,0.0,89,0.00,,,0.00,Wunderground v.1.15,2013-09-14 08:33:00,
2013-09-14 01:34:00,51.6,49.1,29.72,West,278,0.0,0.0,91,0.00,,,0.00,Wunderground v.1.15,2013-09-14 08:34:00,
2013-09-14 01:39:00,53.3,50.1,29.72,West,278,0.0,0.0,89,0.00,,,0.00,Wunderground v.1.15,2013-09-14 08:39:00,
2013-09-14 01:45:00,53.2,50.0,29.72,West,278,0.0,0.0,89,0.00,,,0.00,Wunderground v.1.15,2013-09-14 08:45:00,
2013-09-14 01:51:00,52.9,49.7,29.72,West,278,0.0,0.0,89,0.00,,,0.00,Wunderground v.1.15,2013-09-14 08:51:00,
2013-09-14 01:57:00,52.8,49.9,29.72,West,278,0.0,0.0,90,0.00,,,0.00,Wunderground v.1.15,2013-09-14 08:57:00,
2013-09-14 02:03:00,52.6,49.8,29.72,West,278,0.0,0.0,90,0.00,,,0.00,Wunderground v.1.15,2013-09-14 09:03:00,
2013-09-14 02:09:00,52.5,49.7,29.73,West,278,0.0,0.0,90,0.00,,,0.00,Wunderground v.1.15,2013-09-14 09:09:00,
2013-09-14 02:14:00,52.3,49.5,29.73,West,278,0.0,0.0,90,0.00,,,0.00,Wunderground v.1.15,2013-09-14 09:14:00,
2013-09-14 02:16:00,50.2,48.0,29.72,West,278,0.0,0.0,92,0.00,,,0.00,Wunderground v.1.15,2013-09-14 09:16:00,
2013-09-14 02:21:00,52.0,49.2,29.72,West,278,0.0,0.0,90,0.00,,,0.00,Wunderground v.1.15,2013-09-14 09:21:00,
2013-09-14 02:26:00,50.1,47.9,29.72,West,278,0.0,0.0,92,0.00,,,0.00,Wunderground v.1.15,2013-09-14 09:26:00,
2013-09-14 02:27:00,51.9,49.1,29.72,West,278,0.0,0.0,90,0.00,,,0.00,Wunderground v.1.15,2013-09-14 09:27:00,
2013-09-14 02:35:00,51.6,49.1,29.72,West,278,0.0,0.0,91,0.00,,,0.00,Wunderground v.1.15,2013-09-14 09:35:00,
2013-09-14 02:40:00,51.4,48.9,29.72,West,278,0.0,0.0,91,0.00,,,0.00,Wunderground v.1.15,2013-09-14 09:40:00,
2013-09-14 02:42:00,49.8,47.6,29.73,West,278,0.0,0.0,92,0.00,,,0.00,Wunderground v.1.15,2013-09-14 09:42:00,
2013-09-14 02:44:00,49.8,47.6,29.73,West,278,0.0,0.0,92,0.00,,,0.00,Wunderground v.1.15,2013-09-14 09:44:00,
2013-09-14 02:47:00,51.3,48.8,29.72,West,278,0.0,0.0,91,0.00,,,0.00,Wunderground v.1.15,2013-09-14 09:47:00,
2013-09-14 02:48:00,49.8,47.6,29.73,West,278,0.0,0.0,92,0.00,,,0.00,Wunderground v.1.15,2013-09-14 09:48:00,
2013-09-14 02:52:00,49.8,47.6,29.73,West,278,0.0,0.0,92,0.00,,,0.00,Wunderground v.1.15,2013-09-14 09:52:00,
2013-09-14 02:53:00,51.1,48.6,29.72,West,278,0.0,0.0,91,0.00,,,0.00,Wunderground v.1.15,2013-09-14 09:53:00,
2013-09-14 02:58:00,50.8,48.3,29.72,West,278,0.0,0.0,91,0.00,,,0.00,Wunderground v.1.15,2013-09-14 09:58:00,
2013-09-14 03:00:00,50.1,48.2,29.73,West,278,0.0,0.0,93,0.00,,,0.00,Wunderground v.1.15,2013-09-14 10:00:00,
2013-09-14 03:02:00,50.1,48.2,29.73,West,278,0.0,0.0,93,0.00,,,0.00,Wunderground v.1.15,2013-09-14 10:02:00,
2013-09-14 03:04:00,50.4,47.9,29.72,West,278,0.0,0.0,91,0.00,,,0.00,Wunderground v.1.15,2013-09-14 10:04:00,
2013-09-14 03:11:00,50.2,48.0,29.72,West,278,0.0,0.0,92,0.00,,,0.00,Wunderground v.1.15,2013-09-14 10:11:00,
2013-09-14 03:17:00,50.2,48.0,29.73,West,278,0.0,0.0,92,0.00,,,0.00,Wunderground v.1.15,2013-09-14 10:17:00,
2013-09-14 03:18:00,51.1,49.4,29.73,West,278,0.0,0.0,94,0.00,,,0.00,Wunderground v.1.15,2013-09-14 10:18:00,
2013-09-14 03:22:00,50.1,47.9,29.72,West,278,0.0,0.0,92,0.00,,,0.00,Wunderground v.1.15,2013-09-14 10:22:00,
2013-09-14 03:29:00,50.1,47.9,29.72,West,278,0.0,0.0,92,0.00,,,0.00,Wunderground v.1.15,2013-09-14 10:29:00,
2013-09-14 03:34:00,49.9,47.7,29.73,West,278,0.0,0.0,92,0.00,,,0.00,Wunderground v.1.15,2013-09-14 10:34:00,
2013-09-14 03:38:00,53.2,51.8,29.73,West,278,0.0,0.0,95,0.00,,,0.00,Wunderground v.1.15,2013-09-14 10:38:00,
2013-09-14 03:44:00,53.5,52.1,29.73,West,278,0.0,0.0,95,0.00,,,0.00,Wunderground v.1.15,2013-09-14 10:44:00,
2013-09-14 03:45:00,49.8,47.6,29.73,West,278,0.0,0.0,92,0.00,,,0.00,Wunderground v.1.15,2013-09-14 10:45:00,
2013-09-14 03:53:00,49.9,47.7,29.73,West,278,0.0,0.0,92,0.00,,,0.00,Wunderground v.1.15,2013-09-14 10:53:00,
2013-09-14 03:58:00,53.6,52.2,29.73,WNW,285,0.0,2.0,95,0.00,,,0.00,Wunderground v.1.15,2013-09-14 10:58:00,
2013-09-14 04:03:00,50.2,48.3,29.73,West,278,0.0,0.0,93,0.00,,,0.00,Wunderground v.1.15,2013-09-14 11:03:00,
2013-09-14 04:09:00,50.5,48.6,29.73,West,278,0.0,0.0,93,0.00,,,0.00,Wunderground v.1.15,2013-09-14 11:09:00,
2013-09-14 04:14:00,51.0,49.3,29.73,West,278,0.0,0.0,94,0.00,,,0.00,Wunderground v.1.15,2013-09-14 11:14:00,
2013-09-14 04:18:00,53.8,52.7,29.73,WNW,285,0.0,1.0,96,0.00,,,0.00,Wunderground v.1.15,2013-09-14 11:18:00,
2013-09-14 04:21:00,51.6,49.9,29.73,West,278,0.0,0.0,94,0.00,,,0.00,Wunderground v.1.15,2013-09-14 11:21:00,
2013-09-14 04:22:00,53.8,52.7,29.73,WNW,285,0.0,0.0,96,0.00,,,0.00,Wunderground v.1.15,2013-09-14 11:22:00,
2013-09-14 04:24:00,53.8,52.7,29.73,WNW,285,0.0,0.0,96,0.00,,,0.00,Wunderground v.1.15,2013-09-14 11:24:00,
2013-09-14 04:27:00,52.2,50.8,29.73,West,278,0.0,0.0,95,0.00,,,0.00,Wunderground v.1.15,2013-09-14 11:27:00,
2013-09-14 04:30:00,53.9,52.8,29.73,WNW,285,0.0,0.0,96,0.00,,,0.00,Wunderground v.1.15,2013-09-14 11:30:00,
2013-09-14 04:33:00,52.8,51.4,29.73,West,278,0.0,0.0,95,0.00,,,0.00,Wunderground v.1.15,2013-09-14 11:33:00,
2013-09-14 04:38:00,53.3,51.9,29.73,West,278,0.0,0.0,95,0.00,,,0.00,Wunderground v.1.15,2013-09-14 11:38:00,
2013-09-14 04:45:00,53.5,52.1,29.73,West,278,0.0,0.0,95,0.00,,,0.00,Wunderground v.1.15,2013-09-14 11:45:00,
2013-09-14 04:51:00,53.6,52.2,29.73,West,278,0.0,1.0,95,0.00,,,0.00,Wunderground v.1.15,2013-09-14 11:51:00,
2013-09-14 04:54:00,53.6,52.5,29.74,WNW,285,0.0,0.0,96,0.00,,,0.00,Wunderground v.1.15,2013-09-14 11:54:00,
2013-09-14 04:58:00,53.6,52.2,29.73,WNW,285,0.0,0.0,95,0.00,,,0.00,Wunderground v.1.15,2013-09-14 11:58:00,
2013-09-14 05:04:00,53.6,52.2,29.73,WNW,285,0.0,0.0,95,0.00,,,0.00,Wunderground v.1.15,2013-09-14 12:04:00,
2013-09-14 05:11:00,53.6,52.2,29.73,WNW,285,0.0,1.0,95,0.00,,,0.00,Wunderground v.1.15,2013-09-14 12:11:00,
2013-09-14 05:18:00,53.8,52.7,29.73,WNW,285,0.0,0.0,96,0.00,,,0.00,Wunderground v.1.15,2013-09-14 12:18:00,
2013-09-14 05:25:00,53.9,52.8,29.73,WNW,285,0.0,0.0,96,0.00,,,0.00,Wunderground v.1.15,2013-09-14 12:25:00,
2013-09-14 05:31:00,53.8,52.7,29.73,WNW,285,0.0,2.0,96,0.00,,,0.00,Wunderground v.1.15,2013-09-14 12:31:00,
2013-09-14 05:36:00,53.5,52.4,29.75,WNW,285,0.0,0.0,96,0.00,,,0.00,Wunderground v.1.15,2013-09-14 12:36:00,
2013-09-14 05:37:00,53.6,52.5,29.73,WNW,285,0.0,2.0,96,0.00,,,0.00,Wunderground v.1.15,2013-09-14 12:37:00,
2013-09-14 05:43:00,53.6,52.5,29.73,WNW,285,0.0,0.0,96,0.00,,,0.00,Wunderground v.1.15,2013-09-14 12:43:00,
2013-09-14 05:49:00,53.6,52.5,29.74,WNW,285,0.0,0.0,96,0.00,,,0.00,Wunderground v.1.15,2013-09-14 12:49:00,
2013-09-14 05:55:00,53.6,52.5,29.74,WNW,285,0.0,0.0,96,0.00,,,0.00,Wunderground v.1.15,2013-09-14 12:55:00,
2013-09-14 06:00:00,53.6,52.5,29.74,WNW,285,0.0,0.0,96,0.00,,,0.00,Wunderground v.1.15,2013-09-14 13:00:00,
2013-09-14 06:07:00,53.5,52.4,29.75,WNW,285,0.0,0.0,96,0.00,,,0.00,Wunderground v.1.15,2013-09-14 13:07:00,
2013-09-14 06:12:00,53.5,52.4,29.75,WNW,285,0.0,0.0,96,0.00,,,0.00,Wunderground v.1.15,2013-09-14 13:12:00,
2013-09-14 06:19:00,53.3,52.2,29.75,WNW,285,0.0,0.0,96,0.00,,,0.00,Wunderground v.1.15,2013-09-14 13:19:00,
2013-09-14 06:24:00,53.3,52.2,29.74,WNW,285,0.0,0.0,96,0.00,,,0.00,Wunderground v.1.15,2013-09-14 13:24:00,
2013-09-14 06:31:00,53.5,52.4,29.74,WNW,285,0.0,0.0,96,0.00,,,0.00,Wunderground v.1.15,2013-09-14 13:31:00,
2013-09-14 06:37:00,53.5,52.4,29.75,WNW,285,0.0,0.0,96,0.00,,,0.00,Wunderground v.1.15,2013-09-14 13:37:00,
2013-09-14 06:43:00,53.5,52.4,29.75,WNW,285,0.0,0.0,96,0.00,,,0.00,Wunderground v.1.15,2013-09-14 13:43:00,
2013-09-14 06:49:00,53.3,52.2,29.75,WNW,285,0.0,0.0,96,0.00,,,0.00,Wunderground v.1.15,2013-09-14 13:49:00,
2013-09-14 06:55:00,53.3,52.2,29.75,WNW,285,0.0,0.0,96,0.00,,,0.00,Wunderground v.1.15,2013-09-14 13:55:00,
2013-09-14 07:01:00,53.3,52.2,29.76,WNW,285,0.0,0.0,96,0.00,,,0.00,Wunderground v.1.15,2013-09-14 14:01:00,
2013-09-14 07:07:00,53.5,52.4,29.76,WNW,285,0.0,0.0,96,0.00,,,0.00,Wunderground v.1.15,2013-09-14 14:07:00,
2013-09-14 07:12:00,53.5,52.4,29.76,WNW,285,0.0,0.0,96,0.00,,,0.00,Wunderground v.1.15,2013-09-14 14:12:00,
2013-09-14 07:19:00,53.5,52.4,29.76,WNW,285,0.0,0.0,96,0.00,,,0.00,Wunderground v.1.15,2013-09-14 14:19:00,
2013-09-14 07:25:00,53.6,52.5,29.76,WNW,285,0.0,0.0,96,0.00,,,0.00,Wunderground v.1.15,2013-09-14 14:25:00,
2013-09-14 07:31:00,53.6,52.5,29.76,WNW,285,0.0,0.0,96,0.00,,,0.00,Wunderground v.1.15,2013-09-14 14:31:00,
2013-09-14 07:37:00,53.6,52.5,29.76,WNW,285,0.0,0.0,96,0.00,,,0.00,Wunderground v.1.15,2013-09-14 14:37:00,
2013-09-14 07:43:00,53.6,52.5,29.77,WNW,285,0.0,0.0,96,0.00,,,0.00,Wunderground v.1.15,2013-09-14 14:43:00,
2013-09-14 07:49:00,53.8,52.7,29.77,WNW,285,0.0,0.0,96,0.00,,,0.00,Wunderground v.1.15,2013-09-14 14:49:00,
2013-09-14 07:55:00,53.8,52.7,29.77,WNW,285,0.0,0.0,96,0.00,,,0.00,Wunderground v.1.15,2013-09-14 14:55:00,
2013-09-14 08:01:00,53.6,52.5,29.77,WNW,285,0.0,0.0,96,0.00,,,0.00,Wunderground v.1.15,2013-09-14 15:01:00,
2013-09-14 08:07:00,53.6,52.5,29.77,WNW,285,0.0,0.0,96,0.00,,,0.00,Wunderground v.1.15,2013-09-14 15:07:00,
2013-09-14 08:13:00,53.8,52.7,29.77,WNW,285,0.0,0.0,96,0.00,,,0.00,Wunderground v.1.15,2013-09-14 15:13:00,
2013-09-14 08:18:00,53.8,52.7,29.77,WNW,285,0.0,0.0,96,0.00,,,0.00,Wunderground v.1.15,2013-09-14 15:18:00,
2013-09-14 08:25:00,53.9,52.8,29.77,WNW,285,0.0,0.0,96,0.00,,,0.00,Wunderground v.1.15,2013-09-14 15:25:00,
2013-09-14 08:31:00,54.1,53.0,29.77,WNW,285,0.0,0.0,96,0.00,,,0.00,Wunderground v.1.15,2013-09-14 15:31:00,
2013-09-14 08:37:00,54.2,53.1,29.77,WNW,286,1.0,2.0,96,0.00,,,0.00,Wunderground v.1.15,2013-09-14 15:37:00,
2013-09-14 08:42:00,54.1,53.0,29.77,WNW,286,1.0,1.0,96,0.00,,,0.00,Wunderground v.1.15,2013-09-14 15:42:00,
2013-09-14 08:49:00,54.1,53.0,29.77,WNW,286,0.0,0.0,96,0.00,,,0.00,Wunderground v.1.15,2013-09-14 15:49:00,
2013-09-14 08:55:00,54.2,53.1,29.77,WNW,286,0.0,2.0,96,0.00,,,0.00,Wunderground v.1.15,2013-09-14 15:55:00,
2013-09-14 09:00:00,54.4,53.3,29.78,WNW,286,1.0,2.0,96,0.00,,,0.00,Wunderground v.1.15,2013-09-14 16:00:00,
2013-09-14 09:07:00,54.4,53.0,29.77,West,263,1.0,2.0,95,0.00,,,0.00,Wunderground v.1.15,2013-09-14 16:07:00,
2013-09-14 09:13:00,54.5,53.4,29.77,West,263,1.0,1.0,96,0.00,,,0.00,Wunderground v.1.15,2013-09-14 16:13:00,
2013-09-14 09:19:00,55.0,53.6,29.78,WNW,297,0.0,3.0,95,0.00,,,0.00,Wunderground v.1.15,2013-09-14 16:19:00,
2013-09-14 09:24:00,55.0,53.3,29.78,WSW,238,1.0,3.0,94,0.00,,,0.00,Wunderground v.1.15,2013-09-14 16:24:00,
2013-09-14 09:31:00,55.3,53.6,29.78,WNW,291,1.0,2.0,94,0.00,,,0.00,Wunderground v.1.15,2013-09-14 16:31:00,
2013-09-14 09:37:00,55.7,53.7,29.78,SW,234,1.0,2.0,93,0.00,,,0.00,Wunderground v.1.15,2013-09-14 16:37:00,
2013-09-14 09:43:00,56.5,54.5,29.78,WNW,289,0.0,1.0,93,0.00,,,0.00,Wunderground v.1.15,2013-09-14 16:43:00,
2013-09-14 09:48:00,56.7,54.4,29.78,West,279,0.0,3.0,92,0.00,,,0.00,Wunderground v.1.15,2013-09-14 16:48:00,
2013-09-14 09:55:00,56.9,54.0,29.78,WSW,248,1.0,3.0,90,0.00,,,0.00,Wunderground v.1.15,2013-09-14 16:55:00,
2013-09-14 10:01:00,57.6,54.4,29.78,West,270,1.0,4.0,89,0.00,,,0.00,Wunderground v.1.15,2013-09-14 17:01:00,
2013-09-14 10:07:00,58.6,55.1,29.78,NNE,24,1.0,4.0,88,0.00,,,0.00,Wunderground v.1.15,2013-09-14 17:07:00,
2013-09-14 10:12:00,59.5,55.0,29.78,NW,310,1.0,3.0,85,0.00,,,0.00,Wunderground v.1.15,2013-09-14 17:12:00,
2013-09-14 10:19:00,60.1,54.9,29.78,WSW,254,2.0,3.0,83,0.00,,,0.00,Wunderground v.1.15,2013-09-14 17:19:00,
2013-09-14 10:25:00,60.5,55.0,29.78,WNW,294,2.0,3.0,82,0.00,,,0.00,Wunderground v.1.15,2013-09-14 17:25:00,
2013-09-14 10:30:00,60.9,55.0,29.78,WNW,294,2.0,3.0,81,0.00,,,0.00,Wunderground v.1.15,2013-09-14 17:30:00,
2013-09-14 10:37:00,61.6,55.4,29.78,SW,221,2.0,4.0,80,0.00,,,0.00,Wunderground v.1.15,2013-09-14 17:37:00,
2013-09-14 10:43:00,62.4,56.1,29.77,NNE,32,2.0,3.0,80,0.00,,,0.00,Wunderground v.1.15,2013-09-14 17:43:00,
2013-09-14 10:49:00,64.0,56.6,29.77,WSW,255,1.0,3.0,77,0.00,,,0.00,Wunderground v.1.15,2013-09-14 17:49:00,
2013-09-14 10:54:00,65.0,56.1,29.77,NW,306,1.0,3.0,73,0.00,,,0.00,Wunderground v.1.15,2013-09-14 17:54:00,
2013-09-14 11:01:00,65.2,56.7,29.77,WSW,257,2.0,2.0,74,0.00,,,0.00,Wunderground v.1.15,2013-09-14 18:01:00,
2013-09-14 11:07:00,65.6,56.3,29.77,WNW,294,2.0,4.0,72,0.00,,,0.00,Wunderground v.1.15,2013-09-14 18:07:00,
2013-09-14 11:13:00,66.1,56.4,29.77,WNW,292,2.0,4.0,71,0.00,,,0.00,Wunderground v.1.15,2013-09-14 18:13:00,
2013-09-14 11:18:00,66.3,56.6,29.77,SW,235,1.0,4.0,71,0.00,,,0.00,Wunderground v.1.15,2013-09-14 18:18:00,
2013-09-14 11:25:00,66.8,57.1,29.77,West,273,1.0,4.0,71,0.00,,,0.00,Wunderground v.1.15,2013-09-14 18:25:00,
2013-09-14 11:31:00,68.1,57.1,29.77,WSW,247,0.0,6.0,68,0.00,,,0.00,Wunderground v.1.15,2013-09-14 18:31:00,
2013-09-14 11:37:00,68.9,57.1,29.76,West,261,1.0,6.0,66,0.00,,,0.00,Wunderground v.1.15,2013-09-14 18:37:00,
2013-09-14 11:42:00,69.1,56.8,29.76,NW,317,2.0,7.0,65,0.00,,,0.00,Wunderground v.1.15,2013-09-14 18:42:00,
2013-09-14 11:49:00,69.6,56.9,29.76,NE,34,2.0,3.0,64,0.00,,,0.00,Wunderground v.1.15,2013-09-14 18:49:00,
2013-09-14 11:55:00,70.3,57.1,29.76,WSW,246,2.0,4.0,63,0.00,,,0.00,Wunderground v.1.15,2013-09-14 18:55:00,
2013-09-14 12:00:00,70.4,57.2,29.76,WNW,294,3.0,4.0,63,0.00,,,0.00,Wunderground v.1.15,2013-09-14 19:00:00,
2013-09-14 12:06:00,70.6,57.4,29.75,South,191,3.0,4.0,63,0.00,,,0.00,Wunderground v.1.15,2013-09-14 19:06:00,
2013-09-14 12:13:00,71.3,57.2,29.75,WSW,252,3.0,6.0,61,0.00,,,0.00,Wunderground v.1.15,2013-09-14 19:13:00,
2013-09-14 12:19:00,72.0,57.4,29.75,West,276,3.0,4.0,60,0.00,,,0.00,Wunderground v.1.15,2013-09-14 19:19:00,
2013-09-14 12:24:00,72.0,57.4,29.75,WNW,282,3.0,4.0,60,0.00,,,0.00,Wunderground v.1.15,2013-09-14 19:24:00,
2013-09-14 12:31:00,72.7,57.1,29.75,West,280,3.0,5.0,58,0.00,,,0.00,Wunderground v.1.15,2013-09-14 19:31:00,
2013-09-14 12:37:00,73.2,57.1,29.74,NE,49,3.0,5.0,57,0.00,,,0.00,Wunderground v.1.15,2013-09-14 19:37:00,
2013-09-14 12:43:00,73.9,57.2,29.74,NW,311,3.0,3.0,56,0.00,,,0.00,Wunderground v.1.15,2013-09-14 19:43:00,
2013-09-14 12:48:00,74.4,57.7,29.74,SW,229,3.0,4.0,56,0.00,,,0.00,Wunderground v.1.15,2013-09-14 19:48:00,
2013-09-14 12:55:00,74.7,56.9,29.74,West,263,3.0,5.0,54,0.00,,,0.00,Wunderground v.1.15,2013-09-14 19:55:00,
2013-09-14 13:01:00,74.6,56.9,29.74,WSW,241,4.0,6.0,54,0.00,,,0.00,Wunderground v.1.15,2013-09-14 20:01:00,
2013-09-14 13:09:00,75.6,56.7,29.73,West,259,3.0,6.0,52,0.00,,,0.00,Wunderground v.1.15,2013-09-14 20:09:00,
2013-09-14 13:15:00,76.5,55.9,29.73,West,262,2.0,6.0,49,0.00,,,0.00,Wunderground v.1.15,2013-09-14 20:15:00,
2013-09-14 13:20:00,76.5,57.0,29.73,NW,307,2.0,4.0,51,0.00,,,0.00,Wunderground v.1.15,2013-09-14 20:20:00,
2013-09-14 13:27:00,77.2,57.1,29.73,WNW,288,3.0,4.0,50,0.00,,,0.00,Wunderground v.1.15,2013-09-14 20:27:00,
2013-09-14 13:33:00,77.7,57.0,29.72,West,276,3.0,4.0,49,0.00,,,0.00,Wunderground v.1.15,2013-09-14 20:33:00,
2013-09-14 13:39:00,78.3,57.6,29.72,NNW,348,2.0,2.0,49,0.00,,,0.00,Wunderground v.1.15,2013-09-14 20:39:00,
2013-09-14 13:44:00,79.6,57.6,29.72,WNW,296,2.0,5.0,47,0.00,,,0.00,Wunderground v.1.15,2013-09-14 20:44:00,
2013-09-14 13:51:00,79.8,57.2,29.72,WNW,290,2.0,2.0,46,0.00,,,0.00,Wunderground v.1.15,2013-09-14 20:51:00,
2013-09-14 13:57:00,79.2,57.8,29.71,West,260,3.0,6.0,48,0.00,,,0.00,Wunderground v.1.15,2013-09-14 20:57:00,
2013-09-14 14:03:00,79.4,57.4,29.71,West,275,3.0,3.0,47,0.00,,,0.00,Wunderground v.1.15,2013-09-14 21:03:00,
2013-09-14 14:08:00,80.1,57.5,29.71,WSW,242,3.0,3.0,46,0.00,,,0.00,Wunderground v.1.15,2013-09-14 21:08:00,
2013-09-14 14:15:00,79.9,57.3,29.71,North,5,3.0,5.0,46,0.00,,,0.00,Wunderground v.1.15,2013-09-14 21:15:00,
2013-09-14 14:21:00,79.8,57.2,29.70,West,279,3.0,5.0,46,0.00,,,0.00,Wunderground v.1.15,2013-09-14 21:21:00,
2013-09-14 14:27:00,80.1,57.5,29.70,NE,43,3.0,5.0,46,0.00,,,0.00,Wunderground v.1.15,2013-09-14 21:27:00,
2013-09-14 14:33:00,81.4,58.0,29.70,WNW,299,2.0,3.0,45,0.00,,,0.00,Wunderground v.1.15,2013-09-14 21:33:00,
2013-09-14 14:39:00,80.9,57.6,29.70,West,271,4.0,4.0,45,0.00,,,0.00,Wunderground v.1.15,2013-09-14 21:39:00,
2013-09-14 14:45:00,80.3,57.0,29.70,NW,317,4.0,7.0,45,0.00,,,0.00,Wunderground v.1.15,2013-09-14 21:45:00,
2013-09-14 14:50:00,80.5,57.8,29.70,West,271,3.0,4.0,46,0.00,,,0.00,Wunderground v.1.15,2013-09-14 21:50:00,
2013-09-14 14:52:00,80.5,57.8,29.68,WSW,248,3.0,8.0,46,0.00,,,0.00,Wunderground v.1.15,2013-09-14 21:52:00,
2013-09-14 14:57:00,80.5,57.8,29.70,SW,235,3.0,5.0,46,0.00,,,0.00,Wunderground v.1.15,2013-09-14 21:57:00,
2013-09-14 15:02:00,80.9,57.6,29.70,WSW,249,3.0,4.0,45,0.00,,,0.00,Wunderground v.1.15,2013-09-14 22:02:00,
2013-09-14 15:09:00,81.4,56.8,29.69,WNW,295,3.0,3.0,43,0.00,,,0.00,Wunderground v.1.15,2013-09-14 22:09:00,
2013-09-14 15:15:00,81.2,57.2,29.69,WSW,250,3.0,4.0,44,0.00,,,0.00,Wunderground v.1.15,2013-09-14 22:15:00,
2013-09-14 15:20:00,81.1,57.1,29.69,NW,323,3.0,4.0,44,0.00,,,0.00,Wunderground v.1.15,2013-09-14 22:20:00,
2013-09-14 15:24:00,80.1,56.8,29.67,NW,309,3.0,3.0,45,0.00,,,0.00,Wunderground v.1.15,2013-09-14 22:24:00,
2013-09-14 15:27:00,80.9,56.9,29.69,WNW,282,4.0,4.0,44,0.00,,,0.00,Wunderground v.1.15,2013-09-14 22:27:00,
2013-09-14 15:28:00,80.1,56.8,29.67,WNW,286,3.0,3.0,45,0.00,,,0.00,Wunderground v.1.15,2013-09-14 22:28:00,
2013-09-14 15:33:00,81.1,57.7,29.69,West,264,3.0,5.0,45,0.00,,,0.00,Wunderground v.1.15,2013-09-14 22:33:00,
2013-09-14 15:38:00,79.8,56.6,29.67,West,271,2.0,5.0,45,0.00,,,0.00,Wunderground v.1.15,2013-09-14 22:38:00,
2013-09-14 15:39:00,81.4,58.0,29.68,WNW,287,3.0,3.0,45,0.00,,,0.00,Wunderground v.1.15,2013-09-14 22:39:00,
2013-09-14 15:44:00,81.2,57.2,29.68,WSW,257,3.0,5.0,44,0.00,,,0.00,Wunderground v.1.15,2013-09-14 22:44:00,
2013-09-14 15:53:00,80.3,57.0,29.68,WNW,282,4.0,8.0,45,0.00,,,0.00,Wunderground v.1.15,2013-09-14 22:53:00,
2013-09-14 15:58:00,80.1,56.8,29.68,SSE,159,4.0,4.0,45,0.00,,,0.00,Wunderground v.1.15,2013-09-14 22:58:00,
2013-09-14 16:05:00,80.1,57.5,29.68,South,191,3.0,6.0,46,0.00,,,0.00,Wunderground v.1.15,2013-09-14 23:05:00,
2013-09-14 16:11:00,80.7,56.8,29.68,WNW,290,2.0,4.0,44,0.00,,,0.00,Wunderground v.1.15,2013-09-14 23:11:00,
2013-09-14 16:16:00,80.3,57.0,29.66,SW,221,2.0,5.0,45,0.00,,,0.00,Wunderground v.1.15,2013-09-14 23:16:00,
2013-09-14 16:17:00,80.5,57.2,29.68,NW,304,2.0,7.0,45,0.00,,,0.00,Wunderground v.1.15,2013-09-14 23:17:00,
2013-09-14 16:24:00,80.1,56.8,29.67,West,272,3.0,3.0,45,0.00,,,0.00,Wunderground v.1.15,2013-09-14 23:24:00,
2013-09-14 16:31:00,79.9,56.7,29.67,WNW,284,3.0,3.0,45,0.00,,,0.00,Wunderground v.1.15,2013-09-14 23:31:00,
2013-09-14 16:39:00,79.8,56.6,29.67,West,274,2.0,2.0,45,0.00,,,0.00,Wunderground v.1.15,2013-09-14 23:39:00,
2013-09-14 16:45:00,79.8,56.6,29.67,WNW,298,2.0,5.0,45,0.00,,,0.00,Wunderground v.1.15,2013-09-14 23:45:00,
2013-09-14 16:50:00,79.2,56.6,29.67,NW,306,4.0,5.0,46,0.00,,,0.00,Wunderground v.1.15,2013-09-14 23:50:00,
2013-09-14 16:57:00,79.6,57.0,29.67,SSW,213,2.0,5.0,46,0.00,,,0.00,Wunderground v.1.15,2013-09-14 23:57:00,
2013-09-14 16:58:00,77.6,57.5,29.66,West,259,3.0,5.0,50,0.00,,,0.00,Wunderground v.1.15,2013-09-14 23:58:00,
2013-09-14 17:03:00,80.3,56.4,29.67,South,172,2.0,2.0,44,0.00,,,0.00,Wunderground v.1.15,2013-09-15 00:03:00,
2013-09-14 17:09:00,80.7,56.8,29.66,WSW,243,1.0,2.0,44,0.00,,,0.00,Wunderground v.1.15,2013-09-15 00:09:00,
2013-09-14 17:17:00,80.3,57.0,29.66,NW,311,2.0,5.0,45,0.00,,,0.00,Wunderground v.1.15,2013-09-15 00:17:00,
2013-09-14 17:22:00,75.6,57.3,29.67,NW,316,3.0,3.0,53,0.00,,,0.00,Wunderground v.1.15,2013-09-15 00:22:00,
2013-09-14 17:23:00,80.1,57.5,29.66,SW,225,2.0,4.0,46,0.00,,,0.00,Wunderground v.1.15,2013-09-15 00:23:00,
2013-09-14 17:28:00,79.4,56.8,29.66,SW,236,3.0,3.0,46,0.00,,,0.00,Wunderground v.1.15,2013-09-15 00:28:00,
2013-09-14 17:35:00,78.6,57.3,29.66,WNW,294,3.0,5.0,48,0.00,,,0.00,Wunderground v.1.15,2013-09-15 00:35:00,
2013-09-14 17:41:00,78.5,57.2,29.66,West,277,3.0,4.0,48,0.00,,,0.00,Wunderground v.1.15,2013-09-15 00:41:00,
2013-09-14 17:46:00,73.7,57.0,29.67,SW,228,1.0,3.0,56,0.00,,,0.00,Wunderground v.1.15,2013-09-15 00:46:00,
2013-09-14 17:47:00,78.3,57.0,29.66,SW,216,3.0,5.0,48,0.00,,,0.00,Wunderground v.1.15,2013-09-15 00:47:00,
2013-09-14 17:53:00,77.7,57.0,29.66,SW,229,3.0,4.0,49,0.00,,,0.00,Wunderground v.1.15,2013-09-15 00:53:00,
2013-09-14 17:59:00,77.4,56.7,29.66,WNW,293,3.0,4.0,49,0.00,,,0.00,Wunderground v.1.15,2013-09-15 00:59:00,
2013-09-14 18:04:00,76.8,56.8,29.66,West,273,3.0,4.0,50,0.00,,,0.00,Wunderground v.1.15,2013-09-15 01:04:00,
2013-09-14 18:11:00,76.3,57.4,29.66,WNW,286,3.0,4.0,52,0.00,,,0.00,Wunderground v.1.15,2013-09-15 01:11:00,
2013-09-14 18:12:00,69.9,56.3,29.67,WSW,255,0.0,0.0,62,0.00,,,0.00,Wunderground v.1.15,2013-09-15 01:12:00,
2013-09-14 18:16:00,75.8,57.4,29.67,SW,217,3.0,4.0,53,0.00,,,0.00,Wunderground v.1.15,2013-09-15 01:16:00,
2013-09-14 18:20:00,68.9,56.2,29.67,NW,317,0.0,4.0,64,0.00,,,0.00,Wunderground v.1.15,2013-09-15 01:20:00,
2013-09-14 18:23:00,75.6,57.3,29.67,NW,305,3.0,4.0,53,0.00,,,0.00,Wunderground v.1.15,2013-09-15 01:23:00,
2013-09-14 18:29:00,75.3,57.5,29.67,West,265,2.0,2.0,54,0.00,,,0.00,Wunderground v.1.15,2013-09-15 01:29:00,
2013-09-14 18:35:00,74.7,57.5,29.67,WNW,289,1.0,3.0,55,0.00,,,0.00,Wunderground v.1.15,2013-09-15 01:35:00,
2013-09-14 18:41:00,74.0,56.8,29.67,SSW,213,1.0,2.0,55,0.00,,,0.00,Wunderground v.1.15,2013-09-15 01:41:00,
2013-09-14 18:47:00,73.3,57.1,29.67,SW,228,1.0,3.0,57,0.00,,,0.00,Wunderground v.1.15,2013-09-15 01:47:00,
2013-09-14 18:53:00,72.5,56.9,29.67,West,270,0.0,2.0,58,0.00,,,0.00,Wunderground v.1.15,2013-09-15 01:53:00,
2013-09-14 18:59:00,71.6,57.0,29.67,West,270,0.0,0.0,60,0.00,,,0.00,Wunderground v.1.15,2013-09-15 01:59:00,
2013-09-14 19:05:00,70.8,56.7,29.67,West,270,0.0,0.0,61,0.00,,,0.00,Wunderground v.1.15,2013-09-15 02:05:00,
2013-09-14 19:13:00,69.6,56.4,29.67,WSW,255,0.0,2.0,63,0.00,,,0.00,Wunderground v.1.15,2013-09-15 02:13:00,
2013-09-14 19:21:00,68.8,56.1,29.67,NW,306,1.0,4.0,64,0.00,,,0.00,Wunderground v.1.15,2013-09-15 02:21:00,
2013-09-14 19:27:00,68.3,56.1,29.67,NW,307,0.0,4.0,65,0.00,,,0.00,Wunderground v.1.15,2013-09-15 02:27:00,
2013-09-14 19:28:00,63.4,54.6,29.69,NW,309,0.0,1.0,73,0.00,,,0.00,Wunderground v.1.15,2013-09-15 02:28:00,
2013-09-14 19:33:00,67.8,56.0,29.68,NW,307,0.0,4.0,66,0.00,,,0.00,Wunderground v.1.15,2013-09-15 02:33:00,
2013-09-14 19:39:00,67.1,55.8,29.68,WNW,295,2.0,3.0,67,0.00,,,0.00,Wunderground v.1.15,2013-09-15 02:39:00,
2013-09-14 19:45:00,66.6,55.7,29.68,WNW,288,2.0,4.0,68,0.00,,,0.00,Wunderground v.1.15,2013-09-15 02:45:00,
2013-09-14 19:50:00,62.6,54.6,29.69,WNW,302,0.0,0.0,75,0.00,,,0.00,Wunderground v.1.15,2013-09-15 02:50:00,
2013-09-14 19:51:00,66.1,55.2,29.68,NW,304,2.0,2.0,68,0.00,,,0.00,Wunderground v.1.15,2013-09-15 02:51:00,
2013-09-14 19:54:00,62.4,54.4,29.69,WNW,302,0.0,0.0,75,0.00,,,0.00,Wunderground v.1.15,2013-09-15 02:54:00,
2013-09-14 19:56:00,62.3,54.3,29.69,WNW,302,0.0,0.0,75,0.00,,,0.00,Wunderground v.1.15,2013-09-15 02:56:00,
2013-09-14 19:57:00,65.5,55.5,29.68,WNW,286,2.0,2.0,70,0.00,,,0.00,Wunderground v.1.15,2013-09-15 02:57:00,
2013-09-14 19:58:00,62.3,54.3,29.70,WNW,302,0.0,0.0,75,0.00,,,0.00,Wunderground v.1.15,2013-09-15 02:58:00,
2013-09-14 20:02:00,62.1,54.1,29.69,WNW,302,0.0,1.0,75,0.00,,,0.00,Wunderground v.1.15,2013-09-15 03:02:00,
2013-09-14 20:03:00,65.0,55.4,29.69,West,268,2.0,3.0,71,0.00,,,0.00,Wunderground v.1.15,2013-09-15 03:03:00,
2013-09-14 20:04:00,62.0,54.3,29.70,WNW,302,0.0,1.0,76,0.00,,,0.00,Wunderground v.1.15,2013-09-15 03:04:00,
2013-09-14 20:06:00,62.0,54.3,29.70,WNW,302,0.0,1.0,76,0.00,,,0.00,Wunderground v.1.15,2013-09-15 03:06:00,
2013-09-14 20:08:00,61.8,54.2,29.70,WNW,302,0.0,1.0,76,0.00,,,0.00,Wunderground v.1.15,2013-09-15 03:08:00,
2013-09-14 20:09:00,64.5,54.9,29.69,NW,316,2.0,2.0,71,0.00,,,0.00,Wunderground v.1.15,2013-09-15 03:09:00,
2013-09-14 20:10:00,61.6,54.0,29.70,WNW,303,0.0,3.0,76,0.00,,,0.00,Wunderground v.1.15,2013-09-15 03:10:00,
2013-09-14 20:12:00,61.6,54.3,29.70,WNW,303,0.0,3.0,77,0.00,,,0.00,Wunderground v.1.15,2013-09-15 03:12:00,
2013-09-14 20:14:00,64.2,55.0,29.69,WNW,287,2.0,2.0,72,0.00,,,0.00,Wunderground v.1.15,2013-09-15 03:14:00,
2013-09-14 20:16:00,61.3,54.0,29.70,WNW,303,0.0,3.0,77,0.00,,,0.00,Wunderground v.1.15,2013-09-15 03:16:00,
2013-09-14 20:18:00,61.3,54.0,29.70,WNW,303,1.0,3.0,77,0.00,,,0.00,Wunderground v.1.15,2013-09-15 03:18:00,
2013-09-14 20:20:00,61.2,53.9,29.70,WNW,303,1.0,1.0,77,0.00,,,0.00,Wunderground v.1.15,2013-09-15 03:20:00,
2013-09-14 20:21:00,63.9,54.7,29.69,WNW,294,1.0,1.0,72,0.00,,,0.00,Wunderground v.1.15,2013-09-15 03:21:00,
2013-09-14 20:22:00,61.0,54.1,29.70,WNW,303,0.0,1.0,78,0.00,,,0.00,Wunderground v.1.15,2013-09-15 03:22:00,
2013-09-14 20:24:00,60.9,54.0,29.70,West,273,0.0,1.0,78,0.00,,,0.00,Wunderground v.1.15,2013-09-15 03:24:00,
2013-09-14 20:26:00,60.9,54.0,29.70,West,276,0.0,1.0,78,0.00,,,0.00,Wunderground v.1.15,2013-09-15 03:26:00,
2013-09-14 20:28:00,63.4,54.6,29.69,NW,309,0.0,0.0,73,0.00,,,0.00,Wunderground v.1.15,2013-09-15 03:28:00,
2013-09-14 20:30:00,60.5,54.0,29.71,WNW,294,1.0,3.0,79,0.00,,,0.00,Wunderground v.1.15,2013-09-15 03:30:00,
2013-09-14 20:32:00,60.4,53.9,29.71,WNW,294,1.0,3.0,79,0.00,,,0.00,Wunderground v.1.15,2013-09-15 03:32:00,
2013-09-14 20:34:00,60.2,54.0,29.71,West,263,1.0,4.0,80,0.00,,,0.00,Wunderground v.1.15,2013-09-15 03:34:00,
2013-09-14 20:35:00,63.1,54.7,29.69,NW,309,0.0,0.0,74,0.00,,,0.00,Wunderground v.1.15,2013-09-15 03:35:00,
2013-09-14 20:36:00,60.1,53.9,29.71,WNW,296,2.0,4.0,80,0.00,,,0.00,Wunderground v.1.15,2013-09-15 03:36:00,
2013-09-14 20:38:00,59.9,53.7,29.71,WSW,252,2.0,4.0,80,0.00,,,0.00,Wunderground v.1.15,2013-09-15 03:38:00,
2013-09-14 20:40:00,62.9,54.5,29.69,WNW,302,0.0,1.0,74,0.00,,,0.00,Wunderground v.1.15,2013-09-15 03:40:00,
2013-09-14 20:42:00,59.6,53.8,29.70,NW,317,3.0,3.0,81,0.00,,,0.00,Wunderground v.1.15,2013-09-15 03:42:00,
2013-09-14 20:44:00,59.5,53.7,29.71,NW,313,3.0,3.0,81,0.00,,,0.00,Wunderground v.1.15,2013-09-15 03:44:00,
2013-09-14 20:46:00,59.5,53.7,29.71,NW,304,2.0,3.0,81,0.00,,,0.00,Wunderground v.1.15,2013-09-15 03:46:00,
2013-09-14 20:47:00,62.6,54.6,29.69,WNW,302,0.0,1.0,75,0.00,,,0.00,Wunderground v.1.15,2013-09-15 03:47:00,
2013-09-14 20:48:00,59.3,53.5,29.71,NW,304,2.0,3.0,81,0.00,,,0.00,Wunderground v.1.15,2013-09-15 03:48:00,
2013-09-14 20:50:00,59.2,53.4,29.71,NW,304,1.0,1.0,81,0.00,,,0.00,Wunderground v.1.15,2013-09-15 03:50:00,
2013-09-14 20:52:00,59.2,53.4,29.71,NW,304,1.0,1.0,81,0.00,,,0.00,Wunderground v.1.15,2013-09-15 03:52:00,
2013-09-14 20:54:00,59.0,53.2,29.71,NW,304,0.0,1.0,81,0.00,,,0.00,Wunderground v.1.15,2013-09-15 03:54:00,
2013-09-14 20:56:00,59.0,53.2,29.71,WNW,284,0.0,1.0,81,0.00,,,0.00,Wunderground v.1.15,2013-09-15 03:56:00,
2013-09-14 20:58:00,58.9,53.4,29.71,West,278,0.0,2.0,82,0.00,,,0.00,Wunderground v.1.15,2013-09-15 03:58:00,
2013-09-14 20:59:00,62.1,54.1,29.70,WNW,302,0.0,0.0,75,0.00,,,0.00,Wunderground v.1.15,2013-09-15 03:59:00,
2013-09-14 21:00:00,58.9,53.4,29.71,WNW,283,0.0,0.0,82,0.00,,,0.00,Wunderground v.1.15,2013-09-15 04:00:00,
2013-09-14 21:02:00,58.7,53.2,29.71,WNW,283,0.0,0.0,82,0.00,,,0.00,Wunderground v.1.15,2013-09-15 04:02:00,
2013-09-14 21:04:00,58.6,53.5,29.71,WNW,283,0.0,0.0,83,0.00,,,0.00,Wunderground v.1.15,2013-09-15 04:04:00,
2013-09-14 21:06:00,58.4,53.3,29.71,WNW,283,0.0,0.0,83,0.00,,,0.00,Wunderground v.1.15,2013-09-15 04:06:00,
2013-09-14 21:08:00,58.4,53.3,29.71,WNW,283,0.0,1.0,83,0.00,,,0.00,Wunderground v.1.15,2013-09-15 04:08:00,
2013-09-14 21:10:00,58.3,53.2,29.71,West,271,0.0,1.0,83,0.00,,,0.00,Wunderground v.1.15,2013-09-15 04:10:00,
2013-09-14 21:12:00,58.3,53.2,29.71,WNW,298,0.0,1.0,83,0.00,,,0.00,Wunderground v.1.15,2013-09-15 04:12:00,
2013-09-14 21:14:00,58.1,53.3,29.71,WNW,298,1.0,1.0,84,0.00,,,0.00,Wunderground v.1.15,2013-09-15 04:14:00,
2013-09-14 21:16:00,58.1,53.3,29.71,WNW,298,1.0,1.0,84,0.00,,,0.00,Wunderground v.1.15,2013-09-15 04:16:00,
2013-09-14 21:18:00,58.1,53.3,29.71,WNW,302,1.0,1.0,84,0.00,,,0.00,Wunderground v.1.15,2013-09-15 04:18:00,
2013-09-14 21:20:00,58.0,53.2,29.71,WNW,301,1.0,1.0,84,0.00,,,0.00,Wunderground v.1.15,2013-09-15 04:20:00,
2013-09-14 21:22:00,58.0,53.2,29.71,NW,305,1.0,1.0,84,0.00,,,0.00,Wunderground v.1.15,2013-09-15 04:22:00,
2013-09-14 21:24:00,57.8,53.0,29.71,West,281,1.0,3.0,84,0.00,,,0.00,Wunderground v.1.15,2013-09-15 04:24:00,
2013-09-14 21:26:00,57.8,53.0,29.71,WNW,282,1.0,3.0,84,0.00,,,0.00,Wunderground v.1.15,2013-09-15 04:26:00,
2013-09-14 21:28:00,57.8,53.0,29.71,WNW,282,1.0,3.0,84,0.00,,,0.00,Wunderground v.1.15,2013-09-15 04:28:00,
2013-09-14 21:30:00,57.8,53.0,29.71,WNW,282,1.0,1.0,84,0.00,,,0.00,Wunderground v.1.15,2013-09-15 04:30:00,
2013-09-14 21:32:00,57.6,52.8,29.71,WNW,282,1.0,1.0,84,0.00,,,0.00,Wunderground v.1.15,2013-09-15 04:32:00,
2013-09-14 21:34:00,57.6,52.8,29.71,North,5,0.0,1.0,84,0.00,,,0.00,Wunderground v.1.15,2013-09-15 04:34:00,
2013-09-14 21:36:00,57.5,53.0,29.72,North,5,0.0,1.0,85,0.00,,,0.00,Wunderground v.1.15,2013-09-15 04:36:00,
2013-09-14 21:38:00,57.5,53.0,29.71,NNW,348,0.0,1.0,85,0.00,,,0.00,Wunderground v.1.15,2013-09-15 04:38:00,
2013-09-14 21:40:00,57.5,53.0,29.72,NNW,344,0.0,0.0,85,0.00,,,0.00,Wunderground v.1.15,2013-09-15 04:40:00,
2013-09-14 21:42:00,57.3,52.8,29.71,NW,315,0.0,0.0,85,0.00,,,0.00,Wunderground v.1.15,2013-09-15 04:42:00,
2013-09-14 21:44:00,57.3,52.8,29.71,NW,310,0.0,0.0,85,0.00,,,0.00,Wunderground v.1.15,2013-09-15 04:44:00,
2013-09-14 21:46:00,57.3,52.8,29.72,NW,310,0.0,0.0,85,0.00,,,0.00,Wunderground v.1.15,2013-09-15 04:46:00,
2013-09-14 21:48:00,57.2,52.7,29.72,NW,304,0.0,1.0,85,0.00,,,0.00,Wunderground v.1.15,2013-09-15 04:48:00,
2013-09-14 21:50:00,57.2,52.7,29.72,NW,304,0.0,0.0,85,0.00,,,0.00,Wunderground v.1.15,2013-09-15 04:50:00,
2013-09-14 21:52:00,57.2,52.7,29.72,NW,304,0.0,0.0,85,0.00,,,0.00,Wunderground v.1.15,2013-09-15 04:52:00,
2013-09-14 21:54:00,57.0,52.5,29.72,NW,304,0.0,0.0,85,0.00,,,0.00,Wunderground v.1.15,2013-09-15 04:54:00,
2013-09-14 21:58:00,56.9,52.4,29.72,NW,304,0.0,0.0,85,0.00,,,0.00,Wunderground v.1.15,2013-09-15 04:58:00,
2013-09-14 22:00:00,56.9,52.4,29.72,NW,304,0.0,0.0,85,0.00,,,0.00,Wunderground v.1.15,2013-09-15 05:00:00,
2013-09-14 22:02:00,56.7,52.6,29.72,NW,304,0.0,0.0,86,0.00,,,0.00,Wunderground v.1.15,2013-09-15 05:02:00,
2013-09-14 22:04:00,56.6,52.5,29.72,NW,304,0.0,0.0,86,0.00,,,0.00,Wunderground v.1.15,2013-09-15 05:04:00,
2013-09-14 22:06:00,56.5,52.4,29.71,NW,304,0.0,0.0,86,0.00,,,0.00,Wunderground v.1.15,2013-09-15 05:06:00,
2013-09-14 22:10:00,56.3,52.2,29.72,NW,304,0.0,0.0,86,0.00,,,0.00,Wunderground v.1.15,2013-09-15 05:10:00,
2013-09-14 22:12:00,56.3,52.2,29.71,NW,304,0.0,0.0,86,0.00,,,0.00,Wunderground v.1.15,2013-09-15 05:12:00,
2013-09-14 22:16:00,56.0,51.9,29.72,NW,304,0.0,0.0,86,0.00,,,0.00,Wunderground v.1.15,2013-09-15 05:16:00,
2013-09-14 22:18:00,55.9,51.8,29.72,NW,304,0.0,0.0,86,0.00,,,0.00,Wunderground v.1.15,2013-09-15 05:18:00,
2013-09-14 22:22:00,55.7,51.6,29.72,NW,304,0.0,0.0,86,0.00,,,0.00,Wunderground v.1.15,2013-09-15 05:22:00,
2013-09-14 22:24:00,55.6,51.5,29.72,NW,304,0.0,0.0,86,0.00,,,0.00,Wunderground v.1.15,2013-09-15 05:24:00,
2013-09-14 22:26:00,55.4,51.3,29.72,NW,304,0.0,0.0,86,0.00,,,0.00,Wunderground v.1.15,2013-09-15 05:26:00,
2013-09-14 22:32:00,55.0,51.2,29.72,NW,304,0.0,0.0,87,0.00,,,0.00,Wunderground v.1.15,2013-09-15 05:32:00,
2013-09-14 22:36:00,54.7,50.9,29.72,NW,304,0.0,0.0,87,0.00,,,0.00,Wunderground v.1.15,2013-09-15 05:36:00,
2013-09-14 22:38:00,54.5,51.0,29.72,NW,304,0.0,0.0,88,0.00,,,0.00,Wunderground v.1.15,2013-09-15 05:38:00,
2013-09-14 22:44:00,54.4,50.9,29.72,NW,304,0.0,0.0,88,0.00,,,0.00,Wunderground v.1.15,2013-09-15 05:44:00,
2013-09-14 22:46:00,54.2,50.7,29.73,NW,304,0.0,0.0,88,0.00,,,0.00,Wunderground v.1.15,2013-09-15 05:46:00,
2013-09-14 22:48:00,54.2,50.7,29.72,NW,304,0.0,0.0,88,0.00,,,0.00,Wunderground v.1.15,2013-09-15 05:48:00,
2013-09-14 22:50:00,54.1,50.9,29.72,NW,304,0.0,0.0,89,0.00,,,0.00,Wunderground v.1.15,2013-09-15 05:50:00,
2013-09-14 22:55:00,57.0,52.5,29.72,NW,304,0.0,0.0,85,0.00,,,0.00,Wunderground v.1.15,2013-09-15 05:55:00,
2013-09-14 22:56:00,53.9,50.7,29.72,NW,304,0.0,0.0,89,0.00,,,0.00,Wunderground v.1.15,2013-09-15 05:56:00,
2013-09-14 22:58:00,53.9,50.4,29.72,NW,304,0.0,0.0,88,0.00,,,0.00,Wunderground v.1.15,2013-09-15 05:58:00,
2013-09-14 23:00:00,53.8,50.3,29.72,NW,304,0.0,0.0,88,0.00,,,0.00,Wunderground v.1.15,2013-09-15 06:00:00,
2013-09-14 23:02:00,53.8,50.6,29.72,NW,304,0.0,0.0,89,0.00,,,0.00,Wunderground v.1.15,2013-09-15 06:02:00,
2013-09-14 23:06:00,56.5,52.4,29.72,NW,304,0.0,0.0,86,0.00,,,0.00,Wunderground v.1.15,2013-09-15 06:06:00,
2013-09-14 23:13:00,56.2,52.1,29.71,NW,304,0.0,0.0,86,0.00,,,0.00,Wunderground v.1.15,2013-09-15 06:13:00,
2013-09-14 23:18:00,53.2,50.0,29.73,NW,304,0.0,0.0,89,0.00,,,0.00,Wunderground v.1.15,2013-09-15 06:18:00,
2013-09-14 23:19:00,55.9,51.8,29.72,NW,304,0.0,0.0,86,0.00,,,0.00,Wunderground v.1.15,2013-09-15 06:19:00,
2013-09-14 23:26:00,55.3,51.2,29.72,NW,304,0.0,0.0,86,0.00,,,0.00,Wunderground v.1.15,2013-09-15 06:26:00,
2013-09-14 23:28:00,53.2,50.6,29.72,NW,304,0.0,0.0,91,0.00,,,0.00,Wunderground v.1.15,2013-09-15 06:28:00,
2013-09-14 23:32:00,54.8,51.0,29.72,NW,304,0.0,0.0,87,0.00,,,0.00,Wunderground v.1.15,2013-09-15 06:32:00,
2013-09-14 23:39:00,54.5,51.0,29.72,NW,304,0.0,0.0,88,0.00,,,0.00,Wunderground v.1.15,2013-09-15 06:39:00,
2013-09-14 23:42:00,52.9,50.3,29.72,NW,304,0.0,0.0,91,0.00,,,0.00,Wunderground v.1.15,2013-09-15 06:42:00,
2013-09-14 23:44:00,52.8,49.9,29.72,NW,304,0.0,0.0,90,0.00,,,0.00,Wunderground v.1.15,2013-09-15 06:44:00,
2013-09-14 23:48:00,52.6,49.8,29.72,NW,304,0.0,0.0,90,0.00,,,0.00,Wunderground v.1.15,2013-09-15 06:48:00,
2013-09-14 23:50:00,54.1,50.9,29.72,NW,304,0.0,0.0,89,0.00,,,0.00,Wunderground v.1.15,2013-09-15 06:50:00,
2013-09-14 23:56:00,52.2,49.4,29.72,NW,304,0.0,0.0,90,0.00,,,0.00,Wunderground v.1.15,2013-09-15 06:56:00,